Time;durP1;ratioP1;P1;durP2;ratioP2;P2;SDS_P1;SDS_P2;PMS_P1;PMS_P2;Temp;Humidity;BMP_temperature;BMP_pressure;BME280_temperature;BME280_humidity;BME280_pressure;Samples;Min_cycle;Max_cycle;Signal;HPM_P1;HPM_P2
2022/01/26 00:00:57;;;;;;;80.60;27.67;;;;;;;;;;5106981;27;20198;-79
2022/01/26 00:06:18;;;;;;;82.03;26.38;;;;;;;;;;5109593;27;20051;-79
2022/01/26 00:08:45;;;;;;;78.22;27.27;;;;;;;;;;5112872;27;20148;-79
2022/01/26 00:11:11;;;;;;;75.72;25.77;;;;;;;;;;5092456;28;20098;-80
2022/01/26 00:13:38;;;;;;;73.10;25.60;;;;;;;;;;5092870;27;20055;-79
2022/01/26 00:16:08;;;;;;;74.38;24.35;;;;;;;;;;5083926;28;20052;-79
2022/01/26 00:18:37;;;;;;;84.57;27.83;;;;;;;;;;5087721;28;20576;-79
2022/01/26 00:21:16;;;;;;;81.30;25.98;;;;;;;;;;5109724;27;20105;-79
2022/01/26 00:24:09;;;;;;;75.40;25.05;;;;;;;;;;5091852;27;20097;-80
2022/01/26 00:27:25;;;;;;;77.68;26.50;;;;;;;;;;5109427;27;20140;-80
2022/01/26 00:29:28;;;;;;;76.95;26.73;;;;;;;;;;5098826;27;20554;-79
2022/01/26 00:40:18;;;;;;;80.93;26.63;;;;;;;;;;5108850;27;20086;-79
2022/01/26 00:42:47;;;;;;;69.85;24.50;;;;;;;;;;5109982;27;20647;-79
2022/01/26 00:45:20;;;;;;;77.97;26.50;;;;;;;;;;5100159;27;20108;-80
2022/01/26 00:47:46;;;;;;;79.07;26.08;;;;;;;;;;5091354;27;20059;-80
2022/01/26 00:50:13;;;;;;;74.22;23.98;;;;;;;;;;5087668;27;20123;-80
2022/01/26 00:52:41;;;;;;;74.80;25.27;;;;;;;;;;5087059;28;20097;-80
2022/01/26 00:55:10;;;;;;;77.63;26.73;;;;;;;;;;5091095;27;20048;-79
2022/01/26 00:57:37;;;;;;;76.80;26.15;;;;;;;;;;5109523;27;20106;-80
2022/01/26 01:00:07;;;;;;;76.18;25.40;;;;;;;;;;5110055;27;20503;-80
2022/01/26 01:02:33;;;;;;;78.53;26.15;;;;;;;;;;5109502;27;20102;-79
2022/01/26 01:05:05;;;;;;;81.63;25.48;;;;;;;;;;5109589;27;20048;-80
2022/01/26 01:07:36;;;;;;;76.55;24.90;;;;;;;;;;5086203;28;20118;-79
2022/01/26 01:10:03;;;;;;;76.38;25.65;;;;;;;;;;5107933;27;20056;-81
2022/01/26 01:12:30;;;;;;;78.78;25.88;;;;;;;;;;5095972;28;20546;-80
2022/01/26 01:14:56;;;;;;;75.00;25.42;;;;;;;;;;5095211;27;20055;-80
2022/01/26 01:17:26;;;;;;;82.18;26.48;;;;;;;;;;5090438;28;20048;-79
2022/01/26 01:20:13;;;;;;;80.05;25.35;;;;;;;;;;5098586;27;20051;-80
2022/01/26 01:28:20;;;;;;;82.80;26.20;;;;;;;;;;5109331;27;20588;-78
2022/01/26 01:30:52;;;;;;;85.55;26.92;;;;;;;;;;5120941;27;20110;-78
2022/01/26 01:33:22;;;;;;;75.20;24.42;;;;;;;;;;5118020;27;21650;-78
2022/01/26 01:35:49;;;;;;;80.50;26.88;;;;;;;;;;5106716;27;20052;-78
2022/01/26 01:38:18;;;;;;;80.72;26.50;;;;;;;;;;5089735;27;20119;-82
2022/01/26 01:40:49;;;;;;;72.55;24.23;;;;;;;;;;5089950;28;20059;-78
2022/01/26 01:43:16;;;;;;;82.43;28.27;;;;;;;;;;5086377;28;20080;-78
2022/01/26 01:45:46;;;;;;;80.43;27.48;;;;;;;;;;5108796;28;20074;-78
2022/01/26 01:48:15;;;;;;;76.13;26.08;;;;;;;;;;5100412;28;20056;-81
2022/01/26 01:50:42;;;;;;;82.32;26.48;;;;;;;;;;5110711;28;20048;-79
2022/01/26 01:53:09;;;;;;;81.60;27.98;;;;;;;;;;5110708;28;20074;-81
2022/01/26 01:55:40;;;;;;;87.63;27.60;;;;;;;;;;5110582;28;20075;-79
2022/01/26 01:58:07;;;;;;;80.95;26.55;;;;;;;;;;5089151;28;20856;-78
2022/01/26 02:00:33;;;;;;;82.57;27.15;;;;;;;;;;5118635;27;20559;-79
2022/01/26 02:03:00;;;;;;;84.05;27.25;;;;;;;;;;5092437;28;20052;-78
2022/01/26 02:05:27;;;;;;;80.35;26.38;;;;;;;;;;5112657;27;20231;-78
2022/01/26 02:07:53;;;;;;;83.18;27.23;;;;;;;;;;5109992;27;20521;-81
2022/01/26 02:10:22;;;;;;;89.25;29.63;;;;;;;;;;5117685;27;20055;-80
2022/01/26 02:12:53;;;;;;;83.50;28.65;;;;;;;;;;5074517;28;20048;-78
2022/01/26 02:15:25;;;;;;;89.55;29.40;;;;;;;;;;5091437;28;20537;-82
2022/01/26 02:20:40;;;;;;;90.05;28.05;;;;;;;;;;5115357;27;20044;-78
2022/01/26 02:56:01;;;;;;;86.82;29.38;;;;;;;;;;5125449;27;20093;-78
2022/01/26 03:03:43;;;;;;;83.25;29.10;;;;;;;;;;5121130;27;20052;-78
2022/01/26 03:06:16;;;;;;;87.00;28.13;;;;;;;;;;5110211;27;20430;-80
2022/01/26 03:08:49;;;;;;;88.65;28.98;;;;;;;;;;5112390;27;20059;-83
2022/01/26 03:11:16;;;;;;;91.90;29.65;;;;;;;;;;5099676;28;20056;-78
2022/01/26 03:13:49;;;;;;;84.07;30.95;;;;;;;;;;5111532;27;20106;-80
2022/01/26 03:16:27;;;;;;;86.70;29.10;;;;;;;;;;5096362;28;20059;-78
2022/01/26 03:21:27;;;;;;;92.93;29.33;;;;;;;;;;5114710;27;20082;-83
2022/01/26 03:32:49;;;;;;;85.55;29.70;;;;;;;;;;5107235;28;20094;-80
2022/01/26 03:35:14;;;;;;;91.45;29.20;;;;;;;;;;5086954;28;20129;-78
2022/01/26 03:37:49;;;;;;;95.80;30.73;;;;;;;;;;5103815;28;20052;-79
2022/01/26 03:40:16;;;;;;;89.00;30.08;;;;;;;;;;5105957;28;20095;-79
2022/01/26 03:42:43;;;;;;;86.10;30.25;;;;;;;;;;5090830;28;20091;-78
2022/01/26 03:45:09;;;;;;;91.75;30.27;;;;;;;;;;5101353;28;20129;-78
2022/01/26 03:47:36;;;;;;;89.07;29.00;;;;;;;;;;5108841;28;20557;-81
2022/01/26 03:50:03;;;;;;;96.18;31.52;;;;;;;;;;5095718;28;20080;-83
2022/01/26 03:52:29;;;;;;;89.75;30.23;;;;;;;;;;5120627;27;20060;-78
2022/01/26 03:54:56;;;;;;;92.47;32.17;;;;;;;;;;5119570;27;20063;-78
2022/01/26 03:57:22;;;;;;;88.75;30.27;;;;;;;;;;5107618;27;20123;-78
2022/01/26 03:59:48;;;;;;;94.85;31.67;;;;;;;;;;5108696;27;20056;-83
2022/01/26 04:02:15;;;;;;;99.97;32.97;;;;;;;;;;5117729;27;20109;-81
2022/01/26 04:04:48;;;;;;;92.88;31.80;;;;;;;;;;5090190;28;20487;-78
2022/01/26 04:07:14;;;;;;;86.65;29.00;;;;;;;;;;5099603;28;20075;-77
2022/01/26 04:09:41;;;;;;;99.22;32.30;;;;;;;;;;5089591;28;20576;-78
2022/01/26 04:12:07;;;;;;;91.53;31.65;;;;;;;;;;5113276;27;20144;-81
2022/01/26 04:14:35;;;;;;;95.55;31.73;;;;;;;;;;5093602;28;20106;-79
2022/01/26 04:17:01;;;;;;;94.97;31.65;;;;;;;;;;5114674;27;20113;-76
2022/01/26 04:19:30;;;;;;;88.03;30.35;;;;;;;;;;5093932;28;20052;-80
2022/01/26 04:22:14;;;;;;;91.07;29.70;;;;;;;;;;5116612;27;20056;-76
2022/01/26 04:24:46;;;;;;;94.45;32.15;;;;;;;;;;5109134;27;20095;-77
2022/01/26 04:29:39;;;;;;;93.30;30.67;;;;;;;;;;5114580;27;20613;-77
2022/01/26 04:32:07;;;;;;;94.45;32.42;;;;;;;;;;5105510;27;20049;-76
2022/01/26 04:34:35;;;;;;;92.80;29.45;;;;;;;;;;5107049;28;20091;-76
2022/01/26 04:39:53;;;;;;;97.60;32.45;;;;;;;;;;5108186;28;20083;-78
2022/01/26 04:42:37;;;;;;;95.00;33.08;;;;;;;;;;5098694;28;20048;-79
2022/01/26 04:45:08;;;;;;;92.55;31.50;;;;;;;;;;5089594;28;20071;-78
2022/01/26 04:47:34;;;;;;;;;;;;;;;;;;5108388;28;20094;-78
2022/01/26 04:50:01;;;;;;;93.45;29.90;;;;;;;;;;5106636;28;46531;-79
2022/01/26 04:52:27;;;;;;;88.72;29.20;;;;;;;;;;5116940;27;20098;-80
2022/01/26 04:54:54;;;;;;;100.93;32.08;;;;;;;;;;5110066;27;20056;-78
2022/01/26 04:57:20;;;;;;;96.07;32.35;;;;;;;;;;5090010;28;20052;-78
2022/01/26 04:59:47;;;;;;;92.65;33.30;;;;;;;;;;5089600;28;20075;-78
2022/01/26 05:02:13;;;;;;;98.15;32.25;;;;;;;;;;5089862;28;20140;-78
2022/01/26 05:04:40;;;;;;;96.53;31.92;;;;;;;;;;5111487;27;20048;-82
2022/01/26 05:07:06;;;;;;;94.13;30.52;;;;;;;;;;5090968;28;20057;-81
2022/01/26 05:09:32;;;;;;;96.00;31.65;;;;;;;;;;5106827;28;20148;-80
2022/01/26 05:12:01;;;;;;;93.55;32.35;;;;;;;;;;5107939;28;20580;-78
2022/01/26 05:14:27;;;;;;;95.57;30.38;;;;;;;;;;5107047;28;20048;-78
2022/01/26 05:16:53;;;;;;;87.78;29.73;;;;;;;;;;5089128;28;20086;-78
2022/01/26 05:19:20;;;;;;;96.53;31.83;;;;;;;;;;5089904;27;20055;-78
2022/01/26 05:21:47;;;;;;;95.93;32.40;;;;;;;;;;5119624;27;20415;-78
2022/01/26 05:24:14;;;;;;;99.10;31.92;;;;;;;;;;5119003;27;20055;-78
2022/01/26 05:26:40;;;;;;;94.38;31.33;;;;;;;;;;5112056;27;21037;-78
2022/01/26 05:29:11;;;;;;;95.45;32.38;;;;;;;;;;5117337;27;20052;-82
2022/01/26 05:31:37;;;;;;;99.50;32.83;;;;;;;;;;5122859;27;20087;-80
2022/01/26 05:34:04;;;;;;;94.95;33.40;;;;;;;;;;5108443;28;20058;-78
2022/01/26 05:36:30;;;;;;;99.75;32.22;;;;;;;;;;5111171;28;20052;-78
2022/01/26 05:38:57;;;;;;;105.47;34.03;;;;;;;;;;5106571;28;20048;-78
2022/01/26 05:41:23;;;;;;;92.18;29.92;;;;;;;;;;5092351;28;20111;-78
2022/01/26 05:43:49;;;;;;;103.70;34.50;;;;;;;;;;5110707;27;20584;-77
2022/01/26 05:46:25;;;;;;;100.13;33.13;;;;;;;;;;5110680;27;20941;-82
2022/01/26 05:48:52;;;;;;;99.90;34.00;;;;;;;;;;5111529;27;20059;-79
2022/01/26 05:51:18;;;;;;;102.05;32.25;;;;;;;;;;5110775;28;20060;-79
2022/01/26 05:53:45;;;;;;;104.30;33.55;;;;;;;;;;5110552;28;20079;-79
2022/01/26 05:56:11;;;;;;;112.45;34.35;;;;;;;;;;5089137;28;20899;-78
2022/01/26 05:58:38;;;;;;;106.25;34.90;;;;;;;;;;5105752;27;20048;-78
2022/01/26 06:01:04;;;;;;;100.22;33.63;;;;;;;;;;5128883;27;20132;-78
2022/01/26 06:03:31;;;;;;;101.75;33.63;;;;;;;;;;5110999;28;20056;-83
2022/01/26 06:05:58;;;;;;;105.45;33.55;;;;;;;;;;5100490;27;20479;-79
2022/01/26 06:08:25;;;;;;;106.25;34.80;;;;;;;;;;5117043;27;20118;-78
2022/01/26 06:10:52;;;;;;;108.05;34.95;;;;;;;;;;5096330;27;20047;-81
2022/01/26 06:13:18;;;;;;;105.60;34.53;;;;;;;;;;5115888;27;20108;-78
2022/01/26 06:15:45;;;;;;;107.72;33.30;;;;;;;;;;5092878;28;20087;-77
2022/01/26 06:18:12;;;;;;;108.57;33.90;;;;;;;;;;5107438;27;20524;-80
2022/01/26 06:20:38;;;;;;;104.18;35.55;;;;;;;;;;5112438;27;20047;-78
2022/01/26 06:23:05;;;;;;;110.93;34.10;;;;;;;;;;5097888;27;20105;-79
2022/01/26 06:25:32;;;;;;;110.47;34.85;;;;;;;;;;5092513;28;20126;-79
2022/01/26 06:28:00;;;;;;;106.75;34.85;;;;;;;;;;5111734;27;20634;-78
2022/01/26 06:30:27;;;;;;;107.60;34.63;;;;;;;;;;5102369;28;20140;-78
2022/01/26 06:32:53;;;;;;;105.38;34.65;;;;;;;;;;5109679;27;20051;-78
2022/01/26 06:35:20;;;;;;;113.85;34.42;;;;;;;;;;5112642;27;20059;-79
2022/01/26 06:37:46;;;;;;;107.95;32.67;;;;;;;;;;5118703;27;20091;-82
2022/01/26 06:40:13;;;;;;;110.40;34.60;;;;;;;;;;5119460;27;20105;-82
2022/01/26 06:42:52;;;;;;;115.35;34.83;;;;;;;;;;5110479;28;20442;-78
2022/01/26 06:45:23;;;;;;;114.72;34.88;;;;;;;;;;5110683;27;20101;-82
2022/01/26 06:48:27;;;;;;;114.57;34.30;;;;;;;;;;5108617;28;20060;-78
2022/01/26 06:50:48;;;;;;;111.65;34.60;;;;;;;;;;5102922;27;20055;-78
2022/01/26 06:53:15;;;;;;;110.55;35.92;;;;;;;;;;5112853;27;20101;-79
2022/01/26 06:55:41;;;;;;;116.78;34.88;;;;;;;;;;5115604;27;20563;-78
2022/01/26 06:58:07;;;;;;;119.47;35.58;;;;;;;;;;5113305;27;20084;-78
2022/01/26 07:00:34;;;;;;;119.68;35.35;;;;;;;;;;5116990;27;20051;-81
2022/01/26 07:03:01;;;;;;;109.47;33.65;;;;;;;;;;5094497;28;20052;-81
2022/01/26 07:05:27;;;;;;;120.60;36.33;;;;;;;;;;5101000;27;20566;-79
2022/01/26 07:07:54;;;;;;;115.85;35.42;;;;;;;;;;5108784;27;20060;-80
2022/01/26 07:10:20;;;;;;;118.60;36.00;;;;;;;;;;5110473;27;20063;-83
2022/01/26 07:12:47;;;;;;;118.15;35.53;;;;;;;;;;5099355;28;20517;-79
2022/01/26 07:23:40;;;;;;;117.07;34.35;;;;;;;;;;5111414;27;20079;-79
2022/01/26 07:26:06;;;;;;;119.63;37.65;;;;;;;;;;5109516;27;20071;-79
2022/01/26 07:28:40;;;;;;;113.82;34.85;;;;;;;;;;5099447;28;20126;-79
2022/01/26 07:31:08;;;;;;;119.43;36.80;;;;;;;;;;5085272;28;20785;-85
2022/01/26 07:33:35;;;;;;;113.72;35.80;;;;;;;;;;5109899;28;20094;-79
2022/01/26 07:36:01;;;;;;;124.00;37.00;;;;;;;;;;5090407;28;20133;-85
2022/01/26 07:38:28;;;;;;;121.50;35.53;;;;;;;;;;5095979;27;20130;-82
2022/01/26 07:40:54;;;;;;;125.07;36.95;;;;;;;;;;5113916;27;20558;-79
2022/01/26 07:43:22;;;;;;;126.78;38.47;;;;;;;;;;5109637;28;20086;-81
2022/01/26 07:45:48;;;;;;;119.95;36.40;;;;;;;;;;5090966;27;20109;-82
2022/01/26 07:48:14;;;;;;;119.47;35.70;;;;;;;;;;5090965;28;20086;-81
2022/01/26 07:50:41;;;;;;;120.63;35.75;;;;;;;;;;5107830;28;20084;-80
2022/01/26 07:53:13;;;;;;;115.35;34.95;;;;;;;;;;5107633;28;20101;-80
2022/01/26 07:55:40;;;;;;;119.82;35.63;;;;;;;;;;5105266;27;20098;-79
2022/01/26 07:58:08;;;;;;;111.80;34.95;;;;;;;;;;5101314;27;20482;-79
2022/01/26 08:00:36;;;;;;;118.57;35.75;;;;;;;;;;5108542;27;20101;-83
2022/01/26 08:03:02;;;;;;;121.18;36.13;;;;;;;;;;5098733;28;20060;-80
2022/01/26 08:05:29;;;;;;;124.70;35.35;;;;;;;;;;5108927;27;20511;-81
2022/01/26 08:07:56;;;;;;;116.03;35.92;;;;;;;;;;5111869;27;21799;-81
2022/01/26 08:10:22;;;;;;;123.32;37.45;;;;;;;;;;5111187;27;20088;-80
2022/01/26 08:12:49;;;;;;;123.00;35.83;;;;;;;;;;5100013;28;20049;-78
2022/01/26 08:15:22;;;;;;;117.20;35.97;;;;;;;;;;5090661;28;21056;-78
2022/01/26 08:17:48;;;;;;;107.57;33.60;;;;;;;;;;5093662;27;20956;-75
2022/01/26 08:20:15;;;;;;;115.07;35.40;;;;;;;;;;5113901;27;20048;-75
2022/01/26 08:22:42;;;;;;;114.22;35.22;;;;;;;;;;5114877;27;20056;-76
2022/01/26 08:25:09;;;;;;;105.05;34.95;;;;;;;;;;5092660;27;20530;-76
2022/01/26 08:27:47;;;;;;;101.03;34.33;;;;;;;;;;5109828;27;20056;-76
2022/01/26 08:30:17;;;;;;;101.40;32.20;;;;;;;;;;5089178;27;20052;-76
2022/01/26 08:32:43;;;;;;;95.53;32.92;;;;;;;;;;5104208;27;20052;-75
2022/01/26 08:35:10;;;;;;;96.68;31.50;;;;;;;;;;5095495;27;20079;-75
2022/01/26 08:37:36;;;;;;;90.32;30.65;;;;;;;;;;5122405;27;20079;-79
2022/01/26 08:40:04;;;;;;;89.00;31.35;;;;;;;;;;5105084;27;20056;-77
2022/01/26 08:42:31;;;;;;;83.15;30.40;;;;;;;;;;5107402;27;20125;-76
2022/01/26 08:44:57;;;;;;;81.90;30.17;;;;;;;;;;5089174;27;20048;-77
2022/01/26 08:47:24;;;;;;;84.50;29.55;;;;;;;;;;5089276;28;20125;-75
2022/01/26 08:49:50;;;;;;;81.72;29.80;;;;;;;;;;5107715;27;20056;-76
2022/01/26 08:52:16;;;;;;;76.47;28.65;;;;;;;;;;5090835;27;20055;-75
2022/01/26 08:54:43;;;;;;;74.45;27.70;;;;;;;;;;5107683;27;20052;-75
2022/01/26 08:57:09;;;;;;;67.85;26.95;;;;;;;;;;5110635;27;20109;-75
2022/01/26 08:59:36;;;;;;;67.97;25.42;;;;;;;;;;5116202;27;20047;-78
2022/01/26 09:02:02;;;;;;;70.57;26.08;;;;;;;;;;5095951;27;20149;-76
2022/01/26 09:04:29;;;;;;;64.35;25.58;;;;;;;;;;5105518;27;20052;-75
2022/01/26 09:06:58;;;;;;;62.92;25.42;;;;;;;;;;5090742;28;20052;-76
2022/01/26 09:09:27;;;;;;;65.95;26.67;;;;;;;;;;5106722;27;20053;-75
2022/01/26 09:11:55;;;;;;;64.53;26.05;;;;;;;;;;5108879;27;20106;-75
2022/01/26 09:14:26;;;;;;;69.05;25.10;;;;;;;;;;5110206;27;20060;-77
2022/01/26 09:16:53;;;;;;;63.83;25.20;;;;;;;;;;5107543;27;20056;-75
2022/01/26 09:19:28;;;;;;;70.85;25.50;;;;;;;;;;5108952;27;20088;-75
2022/01/26 09:21:56;;;;;;;62.92;23.40;;;;;;;;;;5106652;27;20136;-75
2022/01/26 09:24:23;;;;;;;65.93;23.70;;;;;;;;;;5113512;27;20082;-75
2022/01/26 09:26:50;;;;;;;68.60;23.27;;;;;;;;;;5116070;27;20103;-75
2022/01/26 09:29:16;;;;;;;62.13;23.58;;;;;;;;;;5109065;27;20580;-75
2022/01/26 09:31:47;;;;;;;62.85;22.88;;;;;;;;;;5101095;27;20102;-75
2022/01/26 09:34:14;;;;;;;;;;;;;;;;;;5106342;27;20056;-76
2022/01/26 09:36:40;;;;;;;59.20;21.70;;;;;;;;;;5111921;27;45869;-76
2022/01/26 09:39:06;;;;;;;59.33;23.15;;;;;;;;;;5090242;28;20060;-75
2022/01/26 09:41:34;;;;;;;63.10;23.40;;;;;;;;;;5105675;27;20105;-76
2022/01/26 09:44:02;;;;;;;61.00;22.80;;;;;;;;;;5106928;27;20060;-76
2022/01/26 09:46:29;;;;;;;62.03;22.42;;;;;;;;;;5109146;28;20520;-75
2022/01/26 09:48:56;;;;;;;61.85;23.25;;;;;;;;;;5109699;28;20074;-76
2022/01/26 09:51:22;;;;;;;62.08;23.02;;;;;;;;;;5090240;28;20078;-79
2022/01/26 09:53:59;;;;;;;57.67;22.67;;;;;;;;;;5109868;28;20102;-75
2022/01/26 09:56:26;;;;;;;60.85;22.73;;;;;;;;;;5097047;27;20487;-75
2022/01/26 09:58:52;;;;;;;64.35;22.08;;;;;;;;;;5092015;28;20782;-75
2022/01/26 10:01:18;;;;;;;62.90;23.27;;;;;;;;;;5091543;28;20600;-75
2022/01/26 10:03:46;;;;;;;58.70;21.45;;;;;;;;;;5107553;28;20056;-78
2022/01/26 10:06:22;;;;;;;60.22;22.77;;;;;;;;;;5110231;27;20501;-75
2022/01/26 10:19:01;;;;;;;67.50;23.92;;;;;;;;;;5110298;28;20054;-75
2022/01/26 10:21:27;;;;;;;58.60;23.17;;;;;;;;;;5091327;28;20055;-77
2022/01/26 10:23:57;;;;;;;60.25;21.25;;;;;;;;;;5109978;27;20056;-75
2022/01/26 10:26:23;;;;;;;63.10;21.73;;;;;;;;;;5108659;27;20056;-75
2022/01/26 10:28:54;;;;;;;59.38;22.45;;;;;;;;;;5103532;28;20084;-75
2022/01/26 10:31:20;;;;;;;52.78;21.33;;;;;;;;;;5102216;28;20082;-75
2022/01/26 10:34:16;;;;;;;63.25;20.75;;;;;;;;;;5106324;27;20060;-75
2022/01/26 10:36:44;;;;;;;59.83;21.65;;;;;;;;;;5118249;27;20497;-77
2022/01/26 10:39:12;;;;;;;53.13;21.95;;;;;;;;;;5119206;27;20752;-75
2022/01/26 10:41:40;;;;;;;64.25;21.23;;;;;;;;;;5111171;27;20048;-75
2022/01/26 10:44:07;;;;;;;57.50;22.02;;;;;;;;;;5105615;27;20052;-75
2022/01/26 10:46:39;;;;;;;61.85;21.70;;;;;;;;;;5105716;27;20063;-79
2022/01/26 10:54:23;;;;;;;57.13;21.15;;;;;;;;;;5108700;27;20052;-77
2022/01/26 10:56:50;;;;;;;56.08;20.33;;;;;;;;;;5089416;28;20054;-74
2022/01/26 10:59:17;;;;;;;53.80;19.77;;;;;;;;;;5109562;27;20056;-78
2022/01/26 11:01:43;;;;;;;57.90;20.08;;;;;;;;;;5093112;27;20842;-76
2022/01/26 11:04:10;;;;;;;56.45;20.77;;;;;;;;;;5087955;28;20082;-83
2022/01/26 11:06:40;;;;;;;59.08;21.52;;;;;;;;;;5108839;27;20052;-76
2022/01/26 11:09:13;;;;;;;49.78;18.65;;;;;;;;;;5108335;27;20144;-77
2022/01/26 11:11:40;;;;;;;53.85;20.20;;;;;;;;;;5109706;27;20059;-76
2022/01/26 11:14:21;;;;;;;52.78;19.83;;;;;;;;;;5091843;27;20109;-76
2022/01/26 11:16:54;;;;;;;53.58;20.70;;;;;;;;;;5104077;27;20055;-76
2022/01/26 11:19:21;;;;;;;53.70;19.23;;;;;;;;;;5084868;28;20129;-76
2022/01/26 11:21:48;;;;;;;56.15;19.70;;;;;;;;;;5088508;27;20048;-78
2022/01/26 11:24:19;;;;;;;52.20;18.67;;;;;;;;;;5111562;27;20056;-76
2022/01/26 11:26:48;;;;;;;53.55;19.15;;;;;;;;;;5105918;27;20564;-79
2022/01/26 11:29:18;;;;;;;52.70;18.80;;;;;;;;;;5092158;28;20474;-76
2022/01/26 11:31:46;;;;;;;;;;;;;;;;;;5100095;27;20491;-76
2022/01/26 11:34:16;;;;;;;51.22;19.70;;;;;;;;;;5116290;27;46754;-79
2022/01/26 11:36:42;;;;;;;51.83;19.45;;;;;;;;;;5101243;27;20531;-79
2022/01/26 11:42:16;;;;;;;48.22;21.52;;;;;;;;;;5107875;27;20141;-78
2022/01/26 11:47:32;;;;;;;57.10;20.38;;;;;;;;;;5101013;27;20048;-76
2022/01/26 11:50:09;;;;;;;56.00;20.50;;;;;;;;;;5099596;27;20513;-79
2022/01/26 11:52:38;;;;;;;52.78;18.48;;;;;;;;;;5107667;27;20071;-76
2022/01/26 11:55:27;;;;;;;53.95;20.10;;;;;;;;;;5084905;27;20052;-78
2022/01/26 11:57:55;;;;;;;55.13;19.48;;;;;;;;;;5107622;27;20109;-79
2022/01/26 12:00:54;;;;;;;49.20;19.23;;;;;;;;;;5090288;27;20107;-80
2022/01/26 12:03:29;;;;;;;53.50;19.60;;;;;;;;;;5091666;27;20048;-84
2022/01/26 12:05:57;;;;;;;53.67;19.92;;;;;;;;;;5109046;27;20102;-80
2022/01/26 12:08:28;;;;;;;51.42;20.30;;;;;;;;;;5108823;27;20502;-77
2022/01/26 12:10:55;;;;;;;54.80;20.13;;;;;;;;;;5110498;27;20495;-77
2022/01/26 12:13:24;;;;;;;55.20;20.98;;;;;;;;;;5113656;27;20569;-79
2022/01/26 12:15:55;;;;;;;52.53;20.70;;;;;;;;;;5107236;27;20798;-77
2022/01/26 12:18:32;;;;;;;48.45;20.45;;;;;;;;;;5087491;27;20064;-82
2022/01/26 12:35:00;;;;;;;49.28;19.48;;;;;;;;;;5107188;27;20550;-77
2022/01/26 12:45:25;;;;;;;50.03;19.25;;;;;;;;;;5106538;27;20048;-81
2022/01/26 12:47:53;;;;;;;49.72;19.50;;;;;;;;;;5106607;27;20138;-81
2022/01/26 12:50:19;;;;;;;48.40;18.35;;;;;;;;;;5108052;27;20508;-76
2022/01/26 12:52:46;;;;;;;46.75;18.77;;;;;;;;;;5105113;27;20056;-83
2022/01/26 12:55:39;;;;;;;51.08;20.02;;;;;;;;;;5086794;28;20129;-77
2022/01/26 12:58:06;;;;;;;51.50;19.00;;;;;;;;;;5095097;27;20541;-83
2022/01/26 13:00:40;;;;;;;53.72;21.10;;;;;;;;;;5090073;27;20109;-78
2022/01/26 13:03:08;;;;;;;50.70;20.30;;;;;;;;;;5094609;27;20079;-76
2022/01/26 13:05:35;;;;;;;45.92;18.02;;;;;;;;;;5108993;27;20040;-76
2022/01/26 13:08:03;;;;;;;47.80;18.17;;;;;;;;;;5103396;27;20110;-78
2022/01/26 13:10:30;;;;;;;43.38;16.10;;;;;;;;;;5108036;27;20056;-77
2022/01/26 13:13:08;;;;;;;45.75;16.90;;;;;;;;;;5101296;27;20485;-80
2022/01/26 13:15:45;;;;;;;46.33;18.00;;;;;;;;;;5086095;27;20056;-80
2022/01/26 13:18:44;;;;;;;46.78;17.58;;;;;;;;;;5097398;27;20546;-77
2022/01/26 13:24:09;;;;;;;43.50;17.65;;;;;;;;;;5102410;27;20125;-76
2022/01/26 13:26:48;;;;;;;46.15;17.65;;;;;;;;;;5102157;27;20140;-81
2022/01/26 13:37:15;;;;;;;45.95;18.40;;;;;;;;;;5108112;27;20106;-76
2022/01/26 13:53:03;;;;;;;45.33;17.98;;;;;;;;;;5104268;27;20059;-78
2022/01/26 13:58:47;;;;;;;47.50;17.58;;;;;;;;;;5109846;27;20056;-81
2022/01/26 14:00:58;;;;;;;44.70;17.33;;;;;;;;;;5101081;27;20052;-75
2022/01/26 14:03:27;;;;;;;44.83;16.80;;;;;;;;;;5104550;27;20548;-75
2022/01/26 14:05:55;;;;;;;47.45;18.15;;;;;;;;;;5109266;27;20052;-76
2022/01/26 14:08:22;;;;;;;43.70;17.17;;;;;;;;;;5089959;28;20662;-75
2022/01/26 14:10:49;;;;;;;40.75;17.40;;;;;;;;;;5104801;27;20414;-75
2022/01/26 14:13:20;;;;;;;43.25;16.33;;;;;;;;;;5100875;27;20122;-75
2022/01/26 14:15:48;;;;;;;;;;;;;;;;;;5110212;27;20678;-77
2022/01/26 14:25:49;;;;;;;45.75;19.65;;;;;;;;;;5109848;28;20081;-76
2022/01/26 14:28:21;;;;;;;46.72;17.63;;;;;;;;;;5098116;28;20052;-75
2022/01/26 14:33:45;;;;;;;45.33;17.85;;;;;;;;;;5109591;28;20093;-76
2022/01/26 15:00:38;;;;;;;47.72;17.42;;;;;;;;;;5110124;28;20503;-76
2022/01/26 15:29:53;;;;;;;47.97;20.17;;;;;;;;;;5108074;27;20164;-75
2022/01/26 15:30:52;;;;;;;52.10;21.33;;;;;;;;;;5110520;27;20052;-76
2022/01/26 15:41:43;;;;;;;46.47;19.42;;;;;;;;;;5109742;27;20056;-77
2022/01/26 15:44:24;;;;;;;54.03;19.38;;;;;;;;;;5119493;27;20109;-78
2022/01/26 16:05:52;;;;;;;51.78;21.38;;;;;;;;;;5111998;27;20052;-80
2022/01/26 16:52:23;;;;;;;60.45;24.58;;;;;;;;;;5109264;27;20051;-78
2022/01/26 17:21:16;;;;;;;64.95;26.90;;;;;;;;;;5102078;27;20079;-82
2022/01/26 17:24:23;;;;;;;65.45;26.55;;;;;;;;;;5110343;27;20045;-78
2022/01/26 17:43:15;;;;;;;62.35;25.77;;;;;;;;;;5110096;27;20578;-82
2022/01/26 17:43:49;;;;;;;68.65;26.48;;;;;;;;;;5097640;27;20059;-78
2022/01/26 18:16:47;;;;;;;63.72;24.45;;;;;;;;;;5105133;27;20342;-78
2022/01/26 18:49:27;;;;;;;59.97;23.55;;;;;;;;;;5110464;27;20056;-77
2022/01/26 18:51:55;;;;;;;57.05;22.88;;;;;;;;;;5108188;27;20102;-77
2022/01/26 18:54:24;;;;;;;63.55;25.52;;;;;;;;;;5105420;27;20066;-82
2022/01/26 18:56:54;;;;;;;61.25;24.65;;;;;;;;;;5109909;27;20059;-77
2022/01/26 18:59:22;;;;;;;69.33;24.20;;;;;;;;;;5112300;27;20102;-77
2022/01/26 19:01:52;;;;;;;59.95;24.42;;;;;;;;;;5106029;27;20060;-78
2022/01/26 19:04:35;;;;;;;64.25;24.23;;;;;;;;;;5109876;27;20487;-77
2022/01/26 19:07:02;;;;;;;63.10;25.40;;;;;;;;;;5091135;28;20066;-77
2022/01/26 19:09:31;;;;;;;57.55;23.90;;;;;;;;;;5109898;27;20424;-77
2022/01/26 19:11:59;;;;;;;66.32;24.55;;;;;;;;;;5091069;28;20052;-78
2022/01/26 19:14:31;;;;;;;69.93;25.23;;;;;;;;;;5091346;27;20106;-78
2022/01/26 19:17:07;;;;;;;61.30;25.27;;;;;;;;;;5105494;27;20105;-77
2022/01/26 19:22:29;;;;;;;65.82;24.98;;;;;;;;;;5110454;27;20052;-80
2022/01/26 19:25:21;;;;;;;56.20;24.02;;;;;;;;;;5101512;27;20059;-80
2022/01/26 19:27:51;;;;;;;61.38;23.35;;;;;;;;;;5111656;27;20079;-78
2022/01/26 19:33:22;;;;;;;68.22;28.08;;;;;;;;;;5097573;27;20052;-77
2022/01/26 19:52:11;;;;;;;67.07;24.50;;;;;;;;;;5108584;27;20560;-82
2022/01/26 19:54:39;;;;;;;65.45;24.02;;;;;;;;;;5086291;27;20568;-78
2022/01/26 19:57:06;;;;;;;61.35;23.27;;;;;;;;;;5108405;27;20091;-78
2022/01/26 19:59:32;;;;;;;63.05;24.20;;;;;;;;;;5116375;27;20096;-79
2022/01/26 20:01:59;;;;;;;60.50;23.77;;;;;;;;;;5107162;27;20557;-77
2022/01/26 20:04:28;;;;;;;62.30;23.88;;;;;;;;;;5089554;28;20431;-81
2022/01/26 20:06:55;;;;;;;76.90;28.38;;;;;;;;;;5104942;27;20119;-77
2022/01/26 20:09:33;;;;;;;60.13;22.75;;;;;;;;;;5108587;27;20052;-77
2022/01/26 20:12:02;;;;;;;64.90;24.20;;;;;;;;;;5112667;27;20060;-78
2022/01/26 20:14:32;;;;;;;58.55;23.08;;;;;;;;;;5108678;27;20080;-77
2022/01/26 20:17:00;;;;;;;66.90;23.40;;;;;;;;;;5090325;27;20060;-77
2022/01/26 20:19:27;;;;;;;61.80;24.60;;;;;;;;;;5103709;27;20624;-80
2022/01/26 20:21:53;;;;;;;63.03;26.17;;;;;;;;;;5100408;27;20470;-77
2022/01/26 20:24:20;;;;;;;63.40;23.42;;;;;;;;;;5100542;27;20490;-78
2022/01/26 20:26:47;;;;;;;64.60;23.00;;;;;;;;;;5084362;28;20133;-81
2022/01/26 20:29:16;;;;;;;61.65;23.00;;;;;;;;;;5105839;27;20054;-80
2022/01/26 20:31:42;;;;;;;64.85;24.27;;;;;;;;;;5103854;27;20427;-79
2022/01/26 20:34:10;;;;;;;61.33;22.95;;;;;;;;;;5101880;27;20607;-79
2022/01/26 20:36:36;;;;;;;62.95;23.08;;;;;;;;;;5094130;27;20517;-77
2022/01/26 20:39:04;;;;;;;66.13;23.05;;;;;;;;;;5090309;28;20140;-78
2022/01/26 20:41:30;;;;;;;58.83;22.92;;;;;;;;;;5108140;27;20143;-77
2022/01/26 20:43:57;;;;;;;62.55;22.92;;;;;;;;;;5087892;27;20108;-79
2022/01/26 20:46:23;;;;;;;57.35;22.80;;;;;;;;;;5107378;27;20102;-83
2022/01/26 20:48:50;;;;;;;60.88;23.20;;;;;;;;;;5089739;27;20136;-79
2022/01/26 20:51:16;;;;;;;61.00;22.08;;;;;;;;;;5088661;28;20984;-78
2022/01/26 20:53:43;;;;;;;59.25;22.85;;;;;;;;;;5109848;27;20056;-80
2022/01/26 20:56:10;;;;;;;52.55;22.45;;;;;;;;;;5090588;28;20060;-77
2022/01/26 20:58:36;;;;;;;60.97;21.55;;;;;;;;;;5104745;27;20059;-82
2022/01/26 21:01:06;;;;;;;58.78;21.80;;;;;;;;;;5116639;27;20105;-78
2022/01/26 21:03:33;;;;;;;57.65;21.67;;;;;;;;;;5107274;27;20056;-78
2022/01/26 21:05:59;;;;;;;60.28;20.80;;;;;;;;;;5100520;27;20067;-77
2022/01/26 21:08:26;;;;;;;58.85;22.48;;;;;;;;;;5113372;27;20113;-77
2022/01/26 21:10:52;;;;;;;52.80;22.05;;;;;;;;;;5109275;27;20679;-79
2022/01/26 21:13:33;;;;;;;54.65;21.67;;;;;;;;;;5107158;27;20105;-83
2022/01/26 21:16:01;;;;;;;56.65;22.00;;;;;;;;;;5084905;27;20044;-77